createdAt,value
2018-10-02T00:00:31.288Z,5.90
2018-10-02T00:02:59.769Z,5.90
2018-10-02T00:05:28.537Z,5.90
2018-10-02T00:07:57.180Z,5.80
2018-10-02T00:10:25.964Z,5.70
2018-10-02T00:12:59.955Z,5.70
2018-10-02T00:15:28.561Z,5.70
2018-10-02T00:17:57.401Z,5.60
2018-10-02T00:20:25.966Z,5.60
2018-10-02T00:22:54.532Z,5.70
2018-10-02T00:25:23.099Z,5.70
2018-10-02T00:27:51.655Z,5.60
2018-10-02T00:30:20.240Z,5.50
2018-10-02T00:32:48.863Z,5.60
2018-10-02T00:35:17.380Z,5.60
2018-10-02T00:37:46.112Z,5.60
2018-10-02T00:40:14.611Z,5.60
2018-10-02T00:42:43.229Z,5.70
2018-10-02T00:45:11.875Z,5.70
2018-10-02T00:47:40.441Z,5.70
2018-10-02T00:50:08.968Z,5.60
2018-10-02T00:52:37.569Z,5.70
2018-10-02T00:55:06.360Z,5.60
2018-10-02T00:57:35.075Z,5.60
2018-10-02T01:00:03.787Z,5.70
2018-10-02T01:02:32.320Z,5.70
2018-10-02T01:05:00.788Z,5.70
2018-10-02T01:07:29.499Z,5.70
2018-10-02T01:09:58.051Z,5.80
2018-10-02T01:12:26.622Z,5.70
2018-10-02T01:14:55.193Z,5.70
2018-10-02T01:17:23.751Z,5.60
2018-10-02T01:19:52.348Z,5.60
2018-10-02T01:22:20.927Z,5.60
2018-10-02T01:24:49.479Z,5.60
2018-10-02T01:27:18.229Z,5.50
2018-10-02T01:29:46.836Z,5.60
2018-10-02T01:32:15.450Z,5.70
2018-10-02T01:34:44.050Z,5.60
2018-10-02T01:37:12.710Z,5.70
2018-10-02T01:39:41.220Z,5.70
2018-10-02T01:42:09.736Z,5.80
2018-10-02T01:44:38.993Z,5.80
2018-10-02T01:47:07.503Z,5.80
2018-10-02T01:49:36.099Z,5.70
2018-10-02T01:52:04.737Z,5.70
2018-10-02T01:54:33.417Z,5.80
2018-10-02T01:57:02.150Z,5.80
2018-10-02T01:59:30.657Z,5.80
2018-10-02T02:01:59.179Z,5.90
2018-10-02T02:04:27.910Z,5.90
2018-10-02T02:06:56.433Z,6.00
2018-10-02T02:09:24.926Z,6.10
2018-10-02T02:11:53.965Z,6.00
2018-10-02T02:14:22.524Z,6.00
2018-10-02T02:16:51.120Z,6.00
2018-10-02T02:19:19.656Z,5.90
2018-10-02T02:21:48.483Z,5.90
2018-10-02T02:24:17.249Z,5.80
2018-10-02T02:26:46.063Z,5.80
2018-10-02T02:29:14.616Z,5.80
2018-10-02T02:31:43.148Z,5.80
2018-10-02T02:34:12.094Z,5.80
2018-10-02T02:36:40.616Z,5.90
2018-10-02T02:39:09.520Z,5.90
2018-10-02T02:41:38.241Z,5.90
2018-10-02T02:44:06.986Z,5.90
2018-10-02T02:46:35.498Z,5.80
2018-10-02T02:49:09.417Z,5.80
2018-10-02T02:51:37.937Z,5.70
2018-10-02T02:54:06.432Z,5.70
2018-10-02T02:56:35.183Z,5.80
2018-10-02T02:59:03.896Z,5.70
2018-10-02T03:01:32.533Z,5.70
2018-10-02T03:04:01.043Z,5.60
2018-10-02T03:06:29.623Z,5.50
2018-10-02T03:08:58.251Z,5.40
2018-10-02T03:11:26.741Z,5.40
2018-10-02T03:13:55.279Z,5.40
2018-10-02T03:16:24.125Z,5.20
2018-10-02T03:18:52.763Z,5.20
2018-10-02T03:21:21.367Z,5.20
2018-10-02T03:23:49.882Z,5.10
2018-10-02T03:26:18.702Z,5.00
2018-10-02T03:28:47.483Z,5.10
2018-10-02T03:31:15.986Z,5.10
2018-10-02T03:33:44.592Z,5.10
2018-10-02T03:36:13.066Z,5.20
2018-10-02T03:38:41.615Z,5.20
2018-10-02T03:41:10.316Z,5.20
2018-10-02T03:43:38.862Z,5.20
2018-10-02T03:46:07.583Z,5.30
2018-10-02T03:48:36.271Z,5.40
2018-10-02T03:51:04.871Z,5.50
2018-10-02T03:53:33.688Z,5.60
2018-10-02T03:56:02.331Z,5.70
2018-10-02T03:58:31.090Z,5.80
2018-10-02T04:00:59.993Z,5.70
2018-10-02T04:03:28.739Z,5.80
2018-10-02T04:05:57.240Z,5.70
2018-10-02T04:08:25.875Z,5.70
2018-10-02T04:10:54.442Z,5.80
2018-10-02T04:13:23.403Z,5.80
2018-10-02T04:15:51.890Z,5.80
2018-10-02T04:18:20.483Z,5.80
2018-10-02T04:20:49.096Z,5.90
2018-10-02T04:23:17.905Z,5.90
2018-10-02T04:25:46.492Z,6.00
2018-10-02T04:28:15.005Z,5.90
2018-10-02T04:30:43.764Z,5.80
2018-10-02T04:33:12.482Z,5.90
2018-10-02T04:35:41.156Z,6.00
2018-10-02T04:38:09.689Z,6.00
2018-10-02T04:40:38.250Z,6.00
2018-10-02T04:43:06.826Z,6.00
2018-10-02T04:45:35.580Z,6.00
2018-10-02T04:48:04.311Z,6.00
2018-10-02T04:50:32.880Z,6.00
2018-10-02T04:53:01.435Z,6.00
2018-10-02T04:55:30.313Z,6.10
2018-10-02T04:57:59.244Z,6.10
2018-10-02T05:00:27.771Z,6.20
2018-10-02T05:02:56.376Z,6.20
2018-10-02T05:05:25.142Z,6.20
2018-10-02T05:07:53.700Z,6.20
2018-10-02T05:10:22.412Z,6.20
2018-10-02T05:12:51.006Z,6.20
2018-10-02T05:15:19.557Z,6.20
2018-10-02T05:17:48.426Z,6.20
2018-10-02T05:20:16.940Z,6.20
2018-10-02T05:22:45.577Z,6.30
2018-10-02T05:25:14.216Z,6.30
2018-10-02T05:27:43.103Z,6.20
2018-10-02T05:30:11.620Z,6.30
2018-10-02T05:32:40.323Z,6.30
2018-10-02T05:35:09.295Z,6.40
2018-10-02T05:37:38.063Z,6.50
2018-10-02T05:40:06.545Z,6.50
2018-10-02T05:42:35.086Z,6.60
2018-10-02T05:45:03.887Z,6.60
2018-10-02T05:47:33.003Z,6.70
2018-10-02T05:50:01.508Z,6.60
2018-10-02T05:52:30.283Z,6.60
2018-10-02T05:54:59.070Z,6.60
2018-10-02T05:57:27.910Z,6.60
2018-10-02T05:59:56.411Z,6.60
2018-10-02T06:02:27.432Z,6.60
2018-10-02T06:04:56.233Z,6.60
2018-10-02T06:07:25.027Z,6.60
2018-10-02T06:09:53.707Z,6.80
2018-10-02T06:12:22.188Z,6.70
2018-10-02T06:14:50.739Z,6.80
2018-10-02T06:17:19.476Z,6.80
2018-10-02T06:19:48.454Z,6.80
2018-10-02T06:22:17.365Z,6.70
2018-10-02T06:24:46.322Z,6.80
2018-10-02T06:27:15.569Z,6.70
2018-10-02T06:29:44.149Z,6.60
2018-10-02T06:32:12.762Z,6.70
2018-10-02T06:34:41.306Z,6.70
2018-10-02T06:37:09.821Z,6.60
2018-10-02T06:39:38.369Z,6.60
2018-10-02T06:42:06.994Z,6.50
2018-10-02T06:44:35.571Z,6.50
2018-10-02T06:47:04.101Z,6.50
2018-10-02T06:49:32.941Z,6.50
2018-10-02T06:52:01.777Z,6.40
2018-10-02T06:54:30.293Z,6.40
2018-10-02T06:56:58.898Z,6.50
2018-10-02T06:59:27.714Z,6.50
2018-10-02T07:01:56.508Z,6.40
2018-10-02T07:04:25.126Z,6.50
2018-10-02T07:06:53.913Z,6.40
2018-10-02T07:09:22.856Z,6.30
2018-10-02T07:11:51.404Z,6.40
2018-10-02T07:14:19.939Z,6.40
2018-10-02T07:16:48.485Z,6.60
2018-10-02T07:19:17.195Z,6.60
2018-10-02T07:21:45.760Z,6.70
2018-10-02T07:24:14.316Z,6.60
2018-10-02T07:26:43.248Z,6.60
2018-10-02T07:29:11.790Z,6.60
2018-10-02T07:31:40.763Z,6.60
2018-10-02T07:34:09.635Z,6.80
2018-10-02T07:36:38.268Z,6.80
2018-10-02T07:39:07.906Z,6.80
2018-10-02T07:41:36.856Z,6.80
2018-10-02T07:44:05.673Z,6.80
2018-10-02T07:46:34.244Z,6.80
2018-10-02T07:49:03.068Z,6.90
2018-10-02T07:51:31.882Z,6.80
2018-10-02T07:54:00.727Z,6.80
2018-10-02T07:56:29.425Z,6.80
2018-10-02T07:58:58.304Z,6.80
2018-10-02T08:01:26.843Z,7.00
2018-10-02T08:03:55.925Z,7.00
2018-10-02T08:06:24.612Z,6.90
2018-10-02T08:08:53.251Z,7.00
2018-10-02T08:11:22.011Z,7.10
2018-10-02T08:13:50.738Z,7.10
2018-10-02T08:16:19.561Z,7.10
2018-10-02T08:18:48.258Z,7.10
2018-10-02T08:21:17.025Z,7.10
2018-10-02T08:23:45.583Z,7.10
2018-10-02T08:26:14.441Z,7.10
2018-10-02T08:28:43.200Z,7.00
2018-10-02T08:31:12.009Z,7.10
2018-10-02T08:33:40.565Z,7.10
2018-10-02T08:36:09.280Z,7.20
2018-10-02T08:38:37.858Z,7.20
2018-10-02T08:41:07.137Z,7.20
2018-10-02T08:43:35.947Z,7.30
2018-10-02T08:46:04.742Z,7.30
2018-10-02T08:48:33.580Z,7.40
2018-10-02T08:51:02.248Z,7.30
2018-10-02T08:53:30.944Z,7.40
2018-10-02T08:55:59.712Z,7.40
2018-10-02T08:58:28.244Z,7.40
2018-10-02T09:00:57.010Z,7.50
2018-10-02T09:03:25.825Z,7.40
2018-10-02T09:05:54.586Z,7.40
2018-10-02T09:08:23.303Z,7.50
2018-10-02T09:10:52.377Z,7.60
2018-10-02T09:13:21.225Z,7.70
2018-10-02T09:15:50.160Z,7.70
2018-10-02T09:18:18.676Z,7.70
2018-10-02T09:20:47.616Z,7.50
2018-10-02T09:23:16.380Z,7.40
2018-10-02T09:25:44.899Z,7.40
2018-10-02T09:28:13.535Z,7.40
2018-10-02T09:30:47.998Z,7.50
2018-10-02T09:33:21.853Z,7.50
2018-10-02T09:35:55.723Z,7.50
2018-10-02T09:40:35.557Z,7.60
2018-10-02T09:43:09.556Z,7.60
2018-10-02T09:45:38.189Z,7.70
2018-10-02T09:48:08.986Z,8.10
2018-10-02T09:50:38.015Z,7.70
2018-10-02T09:53:06.772Z,7.60
2018-10-02T09:55:35.675Z,7.70
2018-10-02T09:58:05.065Z,7.70
2018-10-02T10:00:39.024Z,7.50
2018-10-02T10:03:07.785Z,7.50
2018-10-02T10:05:36.546Z,7.40
2018-10-02T10:08:05.246Z,7.50
2018-10-02T10:10:34.163Z,7.50
2018-10-02T10:13:02.823Z,7.50
2018-10-02T10:15:31.336Z,7.50
2018-10-02T10:17:59.959Z,7.50
2018-10-02T10:20:28.497Z,7.50
2018-10-02T10:22:57.105Z,7.50
2018-10-02T10:25:25.928Z,7.60
2018-10-02T10:27:54.508Z,7.50
2018-10-02T10:30:23.136Z,7.50
2018-10-02T10:32:52.066Z,7.50
2018-10-02T10:35:20.835Z,7.60
2018-10-02T10:37:49.427Z,7.60
2018-10-02T10:40:17.971Z,7.70
2018-10-02T10:42:46.639Z,7.80
2018-10-02T10:45:15.565Z,7.80
2018-10-02T10:47:44.278Z,7.90
2018-10-02T10:50:12.987Z,7.90
2018-10-02T10:52:41.601Z,7.90
2018-10-02T10:55:22.040Z,8.00
2018-10-02T10:57:51.326Z,7.90
2018-10-02T11:00:20.484Z,7.90
2018-10-02T11:02:55.663Z,7.90
2018-10-02T11:05:24.633Z,8.00
2018-10-02T11:07:53.204Z,8.10
2018-10-02T11:10:21.898Z,8.10
2018-10-02T11:12:50.631Z,8.00
2018-10-02T11:15:20.569Z,8.00
2018-10-02T11:17:49.418Z,8.10
2018-10-02T11:20:23.615Z,8.10
2018-10-02T11:22:52.229Z,8.20
2018-10-02T11:25:21.044Z,8.10
2018-10-02T11:27:49.733Z,8.20
2018-10-02T11:30:18.805Z,8.20
2018-10-02T11:32:47.359Z,8.10
2018-10-02T11:35:16.231Z,8.20
2018-10-02T11:37:45.347Z,8.20
2018-10-02T11:40:13.967Z,8.20
2018-10-02T11:42:42.901Z,8.30
2018-10-02T11:45:11.476Z,8.30
2018-10-02T11:47:40.222Z,8.30
2018-10-02T11:50:08.998Z,8.30
2018-10-02T11:52:37.820Z,8.30
2018-10-02T11:55:06.631Z,8.30
2018-10-02T11:57:35.154Z,8.30
2018-10-02T12:00:04.264Z,8.20
2018-10-02T12:02:32.838Z,8.30
2018-10-02T12:05:02.023Z,8.30
2018-10-02T12:07:30.828Z,8.30
2018-10-02T12:09:59.455Z,8.20
2018-10-02T12:12:28.096Z,8.20
2018-10-02T12:14:56.992Z,8.20
2018-10-02T12:17:26.023Z,8.20
2018-10-02T12:19:54.908Z,8.20
2018-10-02T12:22:23.521Z,8.20
2018-10-02T12:24:52.162Z,8.20
2018-10-02T12:27:21.066Z,8.20
2018-10-02T12:29:49.836Z,8.30
2018-10-02T12:32:18.668Z,8.20
2018-10-02T12:34:47.351Z,8.30
2018-10-02T12:37:15.916Z,8.40
2018-10-02T12:39:44.550Z,8.30
2018-10-02T12:42:13.322Z,8.30
2018-10-02T12:44:41.884Z,8.40
2018-10-02T12:47:10.802Z,8.40
2018-10-02T12:49:39.611Z,8.40
2018-10-02T12:52:08.383Z,8.40
2018-10-02T12:54:36.979Z,8.40
2018-10-02T12:57:05.570Z,8.50
2018-10-02T12:59:34.206Z,8.40
2018-10-02T13:02:03.333Z,8.30
2018-10-02T13:04:32.227Z,8.40
2018-10-02T13:07:01.147Z,8.50
2018-10-02T13:09:29.896Z,8.50
2018-10-02T13:11:58.710Z,8.50
2018-10-02T13:14:27.910Z,8.40
2018-10-02T13:16:56.837Z,8.60
2018-10-02T13:19:26.150Z,8.60
2018-10-02T13:21:54.717Z,8.60
2018-10-02T13:24:23.976Z,8.60
2018-10-02T13:26:52.650Z,8.50
2018-10-02T13:29:21.522Z,8.60
2018-10-02T13:31:50.478Z,8.50
2018-10-02T13:34:19.550Z,8.40
2018-10-02T13:36:48.462Z,8.50
2018-10-02T13:39:17.421Z,8.50
2018-10-02T13:41:46.291Z,8.50
2018-10-02T13:44:15.156Z,8.60
2018-10-02T13:46:43.984Z,8.60
2018-10-02T13:49:13.124Z,8.70
2018-10-02T13:51:41.751Z,8.70
2018-10-02T13:54:10.589Z,8.70
2018-10-02T13:56:39.249Z,8.80
2018-10-02T13:59:07.901Z,8.70
2018-10-02T14:01:36.747Z,8.80
2018-10-02T14:04:05.424Z,8.70
2018-10-02T14:06:34.698Z,8.70
2018-10-02T14:09:03.663Z,8.70
2018-10-02T14:11:32.661Z,8.70
2018-10-02T14:14:01.374Z,8.80
2018-10-02T14:16:35.277Z,8.70
2018-10-02T14:19:04.061Z,8.80
2018-10-02T14:21:32.858Z,8.80
2018-10-02T14:24:01.636Z,8.80
2018-10-02T14:26:30.299Z,8.80
2018-10-02T14:28:58.893Z,9.00
2018-10-02T14:31:27.872Z,8.90
2018-10-02T14:33:57.571Z,8.90
2018-10-02T14:36:26.141Z,8.90
2018-10-02T14:38:55.026Z,9.00
2018-10-02T14:41:24.134Z,8.90
2018-10-02T14:43:53.052Z,9.00
2018-10-02T14:46:22.171Z,9.10
2018-10-02T14:48:51.013Z,9.10
2018-10-02T14:51:19.836Z,9.10
2018-10-02T14:53:48.668Z,9.10
2018-10-02T14:56:17.620Z,9.10
2018-10-02T14:58:46.556Z,9.20
2018-10-02T15:01:15.406Z,9.20
2018-10-02T15:03:44.701Z,9.20
2018-10-02T15:06:13.664Z,9.30
2018-10-02T15:08:42.425Z,9.30
2018-10-02T15:11:11.284Z,9.30
2018-10-02T15:13:40.097Z,9.30
2018-10-02T15:16:09.149Z,9.40
2018-10-02T15:18:38.140Z,9.40
2018-10-02T15:21:07.188Z,9.40
2018-10-02T15:23:36.588Z,9.40
2018-10-02T15:26:05.421Z,9.50
2018-10-02T15:28:34.246Z,9.40
2018-10-02T15:31:02.909Z,9.40
2018-10-02T15:33:31.916Z,9.40
2018-10-02T15:36:00.891Z,9.60
2018-10-02T15:38:30.058Z,9.50
2018-10-02T15:40:59.224Z,9.50
2018-10-02T15:43:27.963Z,9.40
2018-10-02T15:45:56.770Z,9.50
2018-10-02T15:48:25.920Z,9.50
2018-10-02T15:50:55.141Z,9.60
2018-10-02T15:53:24.134Z,9.70
2018-10-02T15:55:53.134Z,9.70
2018-10-02T15:58:22.505Z,9.80
2018-10-02T16:00:51.487Z,9.90
2018-10-02T16:03:20.451Z,9.90
2018-10-02T16:05:49.305Z,10.00
2018-10-02T16:08:18.217Z,10.00
2018-10-02T16:10:47.156Z,10.10
2018-10-02T16:13:16.080Z,10.20
2018-10-02T16:15:45.039Z,10.30
2018-10-02T16:18:13.858Z,10.40
2018-10-02T16:20:42.808Z,10.40
2018-10-02T16:23:11.696Z,10.40
2018-10-02T16:25:41.098Z,10.40
2018-10-02T16:28:10.026Z,10.50
2018-10-02T16:30:39.003Z,10.50
2018-10-02T16:33:07.828Z,10.50
2018-10-02T16:35:36.808Z,10.60
2018-10-02T16:38:05.724Z,10.50
2018-10-02T16:40:34.520Z,10.50
2018-10-02T16:43:03.233Z,10.60
2018-10-02T16:45:32.156Z,10.60
2018-10-02T16:48:01.344Z,10.70
2018-10-02T16:50:30.191Z,10.60
2018-10-02T16:52:59.327Z,10.70
2018-10-02T16:55:28.390Z,10.70
2018-10-02T16:57:57.257Z,10.60
2018-10-02T17:00:26.393Z,10.50
2018-10-02T17:02:55.457Z,10.80
2018-10-02T17:05:24.568Z,10.70
2018-10-02T17:07:53.739Z,10.70
2018-10-02T17:10:22.648Z,10.70
2018-10-02T17:12:51.648Z,10.80
2018-10-02T17:15:20.306Z,10.70
2018-10-02T17:17:49.175Z,10.70
2018-10-02T17:20:18.286Z,10.70
2018-10-02T17:22:47.143Z,10.90
2018-10-02T17:25:16.030Z,10.70
2018-10-02T17:27:45.030Z,10.70
2018-10-02T17:30:14.075Z,10.80
2018-10-02T17:32:43.735Z,10.90
2018-10-02T17:35:12.641Z,10.90
2018-10-02T17:37:41.806Z,11.00
2018-10-02T17:40:10.617Z,11.00
2018-10-02T17:42:39.259Z,11.00
2018-10-02T17:45:08.167Z,11.00
2018-10-02T17:47:37.185Z,11.00
2018-10-02T17:50:05.894Z,11.10
2018-10-02T17:52:34.931Z,11.20
2018-10-02T17:55:04.021Z,11.20
2018-10-02T17:57:36.995Z,11.00
2018-10-02T18:00:06.311Z,11.00
2018-10-02T18:02:35.205Z,10.90
2018-10-02T18:05:04.183Z,10.80
2018-10-02T18:07:33.329Z,10.70
2018-10-02T18:10:02.622Z,10.80
2018-10-02T18:12:31.538Z,10.80
2018-10-02T18:15:00.453Z,10.70
2018-10-02T18:17:29.290Z,7.90
2018-10-02T18:19:58.118Z,10.60
2018-10-02T18:22:27.296Z,10.60
2018-10-02T18:24:56.689Z,10.50
2018-10-02T18:27:25.786Z,10.50
2018-10-02T18:29:54.651Z,10.40
2018-10-02T18:32:23.394Z,10.50
2018-10-02T18:34:52.296Z,10.50
2018-10-02T18:37:21.294Z,10.40
2018-10-02T18:39:50.323Z,10.30
2018-10-02T18:42:19.507Z,10.40
2018-10-02T18:44:48.832Z,10.50
2018-10-02T18:47:17.682Z,10.50
2018-10-02T18:49:46.394Z,10.50
2018-10-02T18:52:15.317Z,10.50
2018-10-02T18:54:44.356Z,10.50
2018-10-02T18:57:13.467Z,10.40
2018-10-02T18:59:42.694Z,10.50
2018-10-02T19:02:11.773Z,10.50
2018-10-02T19:04:40.699Z,10.40
2018-10-02T19:07:09.898Z,10.40
2018-10-02T19:09:39.065Z,10.60
2018-10-02T19:12:11.756Z,10.50
2018-10-02T19:14:40.613Z,10.40
2018-10-02T19:17:09.750Z,10.40
2018-10-02T19:19:43.762Z,10.30
2018-10-02T19:22:12.801Z,10.20
2018-10-02T19:24:41.852Z,10.10
2018-10-02T19:27:11.233Z,10.10
2018-10-02T19:29:40.771Z,10.00
2018-10-02T19:32:13.860Z,9.90
2018-10-02T19:34:43.075Z,9.90
2018-10-02T19:37:17.279Z,10.10
2018-10-02T19:39:46.743Z,10.10
2018-10-02T19:42:16.404Z,10.10
2018-10-02T19:44:45.565Z,10.20
2018-10-02T19:47:14.693Z,10.20
2018-10-02T19:49:43.867Z,10.20
2018-10-02T19:52:14.124Z,10.20
2018-10-02T19:54:43.508Z,10.20
2018-10-02T19:57:14.917Z,10.40
2018-10-02T19:59:44.267Z,10.40
2018-10-02T20:02:13.518Z,10.30
2018-10-02T20:04:42.541Z,10.30
2018-10-02T20:07:11.499Z,10.30
2018-10-02T20:09:40.810Z,10.40
2018-10-02T20:12:10.077Z,10.40
2018-10-02T20:14:40.480Z,10.50
2018-10-02T20:17:09.432Z,10.50
2018-10-02T20:19:38.724Z,10.50
2018-10-02T20:22:09.441Z,10.50
2018-10-02T20:24:38.463Z,10.50
2018-10-02T20:27:07.822Z,10.30
2018-10-02T20:29:37.295Z,10.30
2018-10-02T20:32:06.327Z,10.20
2018-10-02T20:34:35.312Z,10.20
2018-10-02T20:37:04.537Z,10.30
2018-10-02T20:39:33.527Z,10.30
2018-10-02T20:42:02.629Z,10.30
2018-10-02T20:44:31.617Z,10.40
2018-10-02T20:47:00.388Z,10.40
2018-10-02T20:49:29.557Z,10.40
2018-10-02T20:51:58.565Z,10.20
2018-10-02T20:54:27.335Z,10.20
2018-10-02T20:56:56.004Z,10.30
2018-10-02T20:59:25.441Z,10.40
2018-10-02T21:01:54.111Z,10.40
2018-10-02T21:04:23.171Z,10.40
2018-10-02T21:06:52.037Z,10.40
2018-10-02T21:09:20.998Z,10.40
2018-10-02T21:11:50.094Z,10.40
2018-10-02T21:14:19.111Z,10.50
2018-10-02T21:16:48.506Z,10.40
2018-10-02T21:19:17.061Z,10.40
2018-10-02T21:21:45.949Z,10.40
2018-10-02T21:24:14.501Z,10.50
2018-10-02T21:26:43.417Z,10.40
2018-10-02T21:29:12.506Z,10.40
2018-10-02T21:31:41.345Z,10.40
2018-10-02T21:34:10.384Z,10.40
2018-10-02T21:36:39.340Z,10.50
2018-10-02T21:39:09.413Z,10.50
2018-10-02T21:41:38.146Z,10.50
2018-10-02T21:44:07.243Z,10.50
2018-10-02T21:46:36.008Z,10.50
2018-10-02T21:49:04.718Z,10.50
2018-10-02T21:51:33.559Z,10.50
2018-10-02T21:54:02.354Z,10.50
2018-10-02T21:56:31.545Z,10.50
2018-10-02T21:59:00.101Z,10.50
2018-10-02T22:01:30.777Z,10.40
2018-10-02T22:03:59.692Z,10.50
2018-10-02T22:06:28.638Z,10.40
2018-10-02T22:08:57.608Z,10.40
2018-10-02T22:11:26.759Z,10.40
2018-10-02T22:13:55.599Z,10.40
2018-10-02T22:16:24.496Z,10.30
2018-10-02T22:18:53.171Z,10.30
2018-10-02T22:21:21.971Z,10.30
2018-10-02T22:23:51.031Z,10.40
2018-10-02T22:26:19.884Z,10.50
2018-10-02T22:28:48.734Z,10.40
2018-10-02T22:31:17.492Z,10.50
2018-10-02T22:33:46.472Z,10.50
2018-10-02T22:36:15.488Z,10.50
2018-10-02T22:38:44.235Z,10.40
2018-10-02T22:41:12.974Z,10.50
2018-10-02T22:43:41.639Z,10.40
2018-10-02T22:46:10.703Z,10.30
2018-10-02T22:48:39.281Z,10.30
2018-10-02T22:51:07.944Z,10.30
2018-10-02T22:53:36.914Z,10.40
2018-10-02T22:56:05.633Z,10.30
2018-10-02T22:58:34.493Z,10.30
2018-10-02T23:01:03.505Z,10.20
2018-10-02T23:03:32.171Z,10.20
2018-10-02T23:06:00.930Z,10.20
2018-10-02T23:08:29.731Z,10.40
2018-10-02T23:10:58.621Z,10.40
2018-10-02T23:13:27.421Z,10.40
2018-10-02T23:15:55.995Z,10.30
2018-10-02T23:18:25.875Z,10.40
2018-10-02T23:20:54.470Z,10.30
2018-10-02T23:23:23.162Z,10.30
2018-10-02T23:25:51.818Z,10.20
2018-10-02T23:28:20.401Z,10.20
2018-10-02T23:30:49.345Z,10.10
2018-10-02T23:33:18.116Z,10.20
2018-10-02T23:35:46.691Z,10.10
2018-10-02T23:38:15.578Z,10.10
2018-10-02T23:40:44.300Z,10.10
2018-10-02T23:43:12.999Z,10.10
2018-10-02T23:45:41.827Z,10.20
2018-10-02T23:48:10.491Z,10.20
2018-10-02T23:50:39.065Z,10.20
2018-10-02T23:53:07.900Z,10.20
2018-10-02T23:55:36.654Z,10.30
2018-10-02T23:58:05.313Z,10.20
